GIA3104 WIMM-OEMA
Flight info
| Callsign | GIA3104 |
|---|---|
| Flight time | N/A |
| Altitude | 36000 |
| Route | DUDEN1A DUDEN DCT BULVA M300 LOTAV N569 TOKRA Y511 ELONU ELONU1H |
| Aircraft | A333/H-SDE3GHIJ2J3J5M1RVWXY/LB2D1 |
Departure
| Time | 2026-04-26 04:20 |
|---|---|
| Airport | Kualanamu International Airport (WIMM) |
Arrival
| Time | N/A |
|---|---|
| Airport | Prince Mohammad Bin Abdulaziz Airport (OEMA) |
| Time | Latitude | Longitude | Altitude | Speed | Heading |
|---|---|---|---|---|---|
| 2026-04-26 03:39 | 3.63867 | 98.87872 | 37 ft | 0 kts | 225° |
| 2026-04-26 04:00 | 3.63869 | 98.87875 | 37 ft | 2 kts | 225° |
| 2026-04-26 04:00 | 3.63880 | 98.87886 | 37 ft | 2 kts | 225° |
| 2026-04-26 04:00 | 3.63887 | 98.87892 | 37 ft | 1 kts | 224° |
| 2026-04-26 04:00 | 3.63898 | 98.87902 | 37 ft | 2 kts | 205° |
| 2026-04-26 04:01 | 3.63913 | 98.87907 | 37 ft | 2 kts | 186° |
| 2026-04-26 04:01 | 3.63928 | 98.87907 | 37 ft | 2 kts | 168° |
| 2026-04-26 04:01 | 3.63942 | 98.87901 | 37 ft | 2 kts | 150° |
| 2026-04-26 04:01 | 3.63952 | 98.87895 | 37 ft | 1 kts | 136° |
| 2026-04-26 04:02 | 3.63955 | 98.87892 | 37 ft | 1 kts | 134° |
| 2026-04-26 04:02 | 3.63956 | 98.87891 | 37 ft | 0 kts | 134° |
| 2026-04-26 04:08 | 3.63955 | 98.87891 | 37 ft | 0 kts | 134° |
| 2026-04-26 04:08 | 3.63947 | 98.87900 | 37 ft | 3 kts | 135° |
| 2026-04-26 04:09 | 3.63927 | 98.87923 | 37 ft | 5 kts | 122° |
| 2026-04-26 04:09 | 3.63933 | 98.87964 | 37 ft | 7 kts | 55° |
| 2026-04-26 04:09 | 3.63975 | 98.88010 | 37 ft | 10 kts | 46° |
| 2026-04-26 04:09 | 3.64025 | 98.88059 | 37 ft | 12 kts | 45° |
| 2026-04-26 04:10 | 3.64077 | 98.88111 | 37 ft | 0 kts | 45° |
| 2026-04-26 04:10 | 3.64095 | 98.88126 | 37 ft | 5 kts | 34° |
| 2026-04-26 04:10 | 3.64139 | 98.88131 | 37 ft | 7 kts | 341° |
| 2026-04-26 04:10 | 3.64185 | 98.88088 | 37 ft | 10 kts | 314° |
| 2026-04-26 04:11 | 3.64243 | 98.88030 | 37 ft | 13 kts | 315° |
| 2026-04-26 04:11 | 3.64292 | 98.87970 | 37 ft | 11 kts | 282° |
| 2026-04-26 04:11 | 3.64249 | 98.87897 | 37 ft | 14 kts | 225° |
| 2026-04-26 04:11 | 3.64174 | 98.87823 | 37 ft | 16 kts | 225° |
| 2026-04-26 04:12 | 3.64089 | 98.87738 | 37 ft | 19 kts | 225° |
| 2026-04-26 04:12 | 3.63986 | 98.87636 | 37 ft | 21 kts | 225° |
| 2026-04-26 04:12 | 3.63893 | 98.87543 | 37 ft | 19 kts | 225° |
| 2026-04-26 04:12 | 3.63797 | 98.87448 | 37 ft | 21 kts | 225° |
| 2026-04-26 04:13 | 3.63691 | 98.87343 | 37 ft | 2 kts | 226° |
| 2026-04-26 04:13 | 3.63690 | 98.87342 | 37 ft | 0 kts | 226° |
| 2026-04-26 04:13 | 3.63679 | 98.87330 | 37 ft | 3 kts | 226° |
| 2026-04-26 04:13 | 3.63654 | 98.87305 | 37 ft | 6 kts | 226° |
| 2026-04-26 04:14 | 3.63624 | 98.87262 | 37 ft | 8 kts | 253° |
| 2026-04-26 04:14 | 3.63648 | 98.87202 | 37 ft | 10 kts | 334° |
| 2026-04-26 04:14 | 3.63718 | 98.87239 | 37 ft | 13 kts | 45° |
| 2026-04-26 04:14 | 3.63790 | 98.87312 | 37 ft | 16 kts | 45° |
| 2026-04-26 04:15 | 3.63869 | 98.87390 | 37 ft | 18 kts | 45° |
| 2026-04-26 04:15 | 3.63970 | 98.87490 | 37 ft | 21 kts | 45° |
| 2026-04-26 04:15 | 3.64080 | 98.87600 | 37 ft | 23 kts | 45° |
| 2026-04-26 04:15 | 3.64196 | 98.87715 | 37 ft | 17 kts | 45° |
| 2026-04-26 04:16 | 3.64286 | 98.87804 | 37 ft | 19 kts | 44° |
| 2026-04-26 04:16 | 3.64386 | 98.87904 | 37 ft | 18 kts | 45° |
| 2026-04-26 04:16 | 3.64477 | 98.87995 | 37 ft | 20 kts | 44° |
| 2026-04-26 04:16 | 3.64581 | 98.88098 | 37 ft | 21 kts | 45° |
| 2026-04-26 04:17 | 3.64652 | 98.88168 | 37 ft | 13 kts | 45° |
| 2026-04-26 04:17 | 3.64714 | 98.88230 | 37 ft | 9 kts | 45° |
| 2026-04-26 04:17 | 3.64765 | 98.88282 | 37 ft | 11 kts | 45° |
| 2026-04-26 04:17 | 3.64814 | 98.88328 | 37 ft | 7 kts | 33° |
| 2026-04-26 04:18 | 3.64872 | 98.88331 | 37 ft | 9 kts | 345° |
| 2026-04-26 04:18 | 3.64918 | 98.88298 | 37 ft | 8 kts | 313° |
| 2026-04-26 04:18 | 3.64951 | 98.88248 | 37 ft | 6 kts | 286° |
| 2026-04-26 04:18 | 3.64942 | 98.88209 | 37 ft | 6 kts | 235° |
| 2026-04-26 04:19 | 3.64924 | 98.88188 | 37 ft | 0 kts | 226° |
| 2026-04-26 04:19 | 3.64848 | 98.88113 | 37 ft | 44 kts | 225° |
| 2026-04-26 04:19 | 3.64464 | 98.87731 | 37 ft | 109 kts | 223° |
| 2026-04-26 04:20 | 3.63771 | 98.87041 | 37 ft | 166 kts | 224° |
| 2026-04-26 04:20 | 3.62880 | 98.86138 | 300 ft | 189 kts | 224° |
| 2026-04-26 04:20 | 3.62005 | 98.85234 | 1033 ft | 179 kts | 224° |
| 2026-04-26 04:20 | 3.61118 | 98.84281 | 1488 ft | 193 kts | 225° |
| 2026-04-26 04:21 | 3.60508 | 98.83623 | 1804 ft | 195 kts | 225° |
| 2026-04-26 04:21 | 3.59208 | 98.82243 | 2075 ft | 213 kts | 224° |
| 2026-04-26 04:21 | 3.58164 | 98.81147 | 2233 ft | 229 kts | 224° |
| 2026-04-26 04:21 | 3.57040 | 98.79971 | 2399 ft | 245 kts | 225° |
| 2026-04-26 04:22 | 3.55834 | 98.78716 | 2607 ft | 258 kts | 225° |
| 2026-04-26 04:22 | 3.54765 | 98.77608 | 2760 ft | 270 kts | 225° |
| 2026-04-26 04:22 | 3.53284 | 98.76073 | 3221 ft | 273 kts | 225° |
| 2026-04-26 04:22 | 3.51955 | 98.74702 | 3706 ft | 277 kts | 225° |
| 2026-04-26 04:23 | 3.50664 | 98.73372 | 4304 ft | 279 kts | 225° |
| 2026-04-26 04:23 | 3.49322 | 98.72000 | 4941 ft | 280 kts | 225° |
| 2026-04-26 04:23 | 3.47960 | 98.70610 | 5495 ft | 284 kts | 225° |
| 2026-04-26 04:23 | 3.46751 | 98.69040 | 6055 ft | 288 kts | 244° |
| 2026-04-26 04:24 | 3.46160 | 98.67138 | 6608 ft | 292 kts | 264° |
| 2026-04-26 04:24 | 3.46204 | 98.65124 | 7150 ft | 295 kts | 276° |
| 2026-04-26 04:24 | 3.46207 | 98.65090 | 7160 ft | 295 kts | 276° |